sensor_id;sensor_type;location;lat;lon;timestamp;pressure;altitude;pressure_sealevel;temperature
37452;BMP280;23314;51.114;6.900;2023-02-04T00:01:18;102799.13;;;9.91
37452;BMP280;23314;51.114;6.900;2023-02-04T00:03:43;102810.91;;;9.90
37452;BMP280;23314;51.114;6.900;2023-02-04T00:06:09;102812.00;;;9.89
37452;BMP280;23314;51.114;6.900;2023-02-04T00:08:34;102822.69;;;9.89
37452;BMP280;23314;51.114;6.900;2023-02-04T00:11:02;102819.69;;;9.90
37452;BMP280;23314;51.114;6.900;2023-02-04T00:13:27;102830.00;;;9.92
37452;BMP280;23314;51.114;6.900;2023-02-04T00:15:52;102818.56;;;9.91
37452;BMP280;23314;51.114;6.900;2023-02-04T00:18:18;102832.66;;;9.92
37452;BMP280;23314;51.114;6.900;2023-02-04T00:20:43;102831.13;;;9.91
37452;BMP280;23314;51.114;6.900;2023-02-04T00:23:08;102840.66;;;9.92
37452;BMP280;23314;51.114;6.900;2023-02-04T00:25:33;102850.56;;;9.91
37452;BMP280;23314;51.114;6.900;2023-02-04T00:27:59;102848.31;;;9.93
37452;BMP280;23314;51.114;6.900;2023-02-04T00:30:24;102838.41;;;9.94
37452;BMP280;23314;51.114;6.900;2023-02-04T00:32:50;102840.66;;;9.92
37452;BMP280;23314;51.114;6.900;2023-02-04T00:35:19;102838.78;;;9.92
37452;BMP280;23314;51.114;6.900;2023-02-04T00:37:44;102837.56;;;9.90
37452;BMP280;23314;51.114;6.900;2023-02-04T00:40:10;102841.03;;;9.90
37452;BMP280;23314;51.114;6.900;2023-02-04T00:42:35;102844.78;;;9.89
37452;BMP280;23314;51.114;6.900;2023-02-04T00:45:00;102831.78;;;9.88
37452;BMP280;23314;51.114;6.900;2023-02-04T00:47:26;102847.78;;;9.88
37452;BMP280;23314;51.114;6.900;2023-02-04T00:49:51;102842.81;;;9.86
37452;BMP280;23314;51.114;6.900;2023-02-04T00:52:16;102844.72;;;9.86
37452;BMP280;23314;51.114;6.900;2023-02-04T00:54:41;102845.47;;;9.86
37452;BMP280;23314;51.114;6.900;2023-02-04T00:57:07;102843.91;;;9.85
37452;BMP280;23314;51.114;6.900;2023-02-04T00:59:32;102834.75;;;9.83
37452;BMP280;23314;51.114;6.900;2023-02-04T01:01:57;102852.63;;;9.82
37452;BMP280;23314;51.114;6.900;2023-02-04T01:04:24;102854.53;;;9.82
37452;BMP280;23314;51.114;6.900;2023-02-04T01:06:50;102855.19;;;9.78
37452;BMP280;23314;51.114;6.900;2023-02-04T01:09:15;102859.41;;;9.79
37452;BMP280;23314;51.114;6.900;2023-02-04T01:11:40;102858.19;;;9.77
37452;BMP280;23314;51.114;6.900;2023-02-04T01:14:09;102855.50;;;9.77
37452;BMP280;23314;51.114;6.900;2023-02-04T01:16:35;102860.09;;;9.76
37452;BMP280;23314;51.114;6.900;2023-02-04T01:19:00;102863.84;;;9.75
37452;BMP280;23314;51.114;6.900;2023-02-04T01:21:25;102868.41;;;9.75
37452;BMP280;23314;51.114;6.900;2023-02-04T01:23:51;102870.69;;;9.73
37452;BMP280;23314;51.114;6.900;2023-02-04T01:26:19;102870.69;;;9.73
37452;BMP280;23314;51.114;6.900;2023-02-04T01:28:44;102866.13;;;9.73
37452;BMP280;23314;51.114;6.900;2023-02-04T01:31:10;102857.34;;;9.73
37452;BMP280;23314;51.114;6.900;2023-02-04T01:33:35;102862.69;;;9.73
37452;BMP280;23314;51.114;6.900;2023-02-04T01:36:00;102871.00;;;9.71
37452;BMP280;23314;51.114;6.900;2023-02-04T01:38:26;102877.44;;;9.70
37452;BMP280;23314;51.114;6.900;2023-02-04T01:40:51;102889.66;;;9.71
37452;BMP280;23314;51.114;6.900;2023-02-04T01:43:16;102888.56;;;9.72
37452;BMP280;23314;51.114;6.900;2023-02-04T01:45:43;102894.22;;;9.71
37452;BMP280;23314;51.114;6.900;2023-02-04T01:48:09;102894.53;;;9.69
37452;BMP280;23314;51.114;6.900;2023-02-04T01:50:37;102900.22;;;9.68
37452;BMP280;23314;51.114;6.900;2023-02-04T01:53:03;102901.00;;;9.68
37452;BMP280;23314;51.114;6.900;2023-02-04T01:55:30;102904.00;;;9.67
37452;BMP280;23314;51.114;6.900;2023-02-04T01:57:56;102896.69;;;9.63
37452;BMP280;23314;51.114;6.900;2023-02-04T02:00:29;102904.34;;;9.65
37452;BMP280;23314;51.114;6.900;2023-02-04T02:02:54;102909.69;;;9.65
37452;BMP280;23314;51.114;6.900;2023-02-04T02:05:27;102917.22;;;9.63
37452;BMP280;23314;51.114;6.900;2023-02-04T02:07:54;102915.69;;;9.62
37452;BMP280;23314;51.114;6.900;2023-02-04T02:10:20;102919.81;;;9.59
37452;BMP280;23314;51.114;6.900;2023-02-04T02:12:46;102909.13;;;9.59
37452;BMP280;23314;51.114;6.900;2023-02-04T02:15:13;102912.59;;;9.60
37452;BMP280;23314;51.114;6.900;2023-02-04T02:17:39;102915.59;;;9.58
37452;BMP280;23314;51.114;6.900;2023-02-04T02:20:06;102918.59;;;9.57
37452;BMP280;23314;51.114;6.900;2023-02-04T02:22:39;102908.69;;;9.57
37452;BMP280;23314;51.114;6.900;2023-02-04T02:25:10;102918.19;;;9.55
37452;BMP280;23314;51.114;6.900;2023-02-04T02:27:36;102914.72;;;9.54
37452;BMP280;23314;51.114;6.900;2023-02-04T02:30:02;102922.28;;;9.52
37452;BMP280;23314;51.114;6.900;2023-02-04T02:32:27;102930.63;;;9.51
37452;BMP280;23314;51.114;6.900;2023-02-04T02:34:52;102923.28;;;9.47
37452;BMP280;23314;51.114;6.900;2023-02-04T02:37:18;102937.28;;;9.44
37452;BMP280;23314;51.114;6.900;2023-02-04T02:39:44;102931.19;;;9.44
37452;BMP280;23314;51.114;6.900;2023-02-04T02:42:14;102931.53;;;9.42
37452;BMP280;23314;51.114;6.900;2023-02-04T02:44:40;102931.06;;;9.40
37452;BMP280;23314;51.114;6.900;2023-02-04T02:47:12;102934.09;;;9.39
37452;BMP280;23314;51.114;6.900;2023-02-04T02:49:38;102930.31;;;9.40
37452;BMP280;23314;51.114;6.900;2023-02-04T02:52:04;102930.63;;;9.38
37452;BMP280;23314;51.114;6.900;2023-02-04T02:54:31;102931.06;;;9.40
37452;BMP280;23314;51.114;6.900;2023-02-04T02:56:57;102935.63;;;9.40
37452;BMP280;23314;51.114;6.900;2023-02-04T02:59:23;102935.97;;;9.38
37452;BMP280;23314;51.114;6.900;2023-02-04T03:01:55;102939.41;;;9.39
37452;BMP280;23314;51.114;6.900;2023-02-04T03:04:22;102933.66;;;9.37
37452;BMP280;23314;51.114;6.900;2023-02-04T03:06:49;102939.75;;;9.37
37452;BMP280;23314;51.114;6.900;2023-02-04T03:09:15;102937.84;;;9.38
37452;BMP280;23314;51.114;6.900;2023-02-04T03:11:40;102944.31;;;9.37
37452;BMP280;23314;51.114;6.900;2023-02-04T03:14:06;102941.56;;;9.33
37452;BMP280;23314;51.114;6.900;2023-02-04T03:16:32;102946.09;;;9.32
37452;BMP280;23314;51.114;6.900;2023-02-04T03:18:59;102947.66;;;9.34
37452;BMP280;23314;51.114;6.900;2023-02-04T03:21:25;102955.97;;;9.32
37452;BMP280;23314;51.114;6.900;2023-02-04T03:23:51;102964.75;;;9.32
37452;BMP280;23314;51.114;6.900;2023-02-04T03:26:20;102961.31;;;9.32
37452;BMP280;23314;51.114;6.900;2023-02-04T03:28:46;102965.09;;;9.31
37452;BMP280;23314;51.114;6.900;2023-02-04T03:31:11;102964.28;;;9.30
37452;BMP280;23314;51.114;6.900;2023-02-04T03:33:36;102972.63;;;9.29
37452;BMP280;23314;51.114;6.900;2023-02-04T03:36:02;102970.31;;;9.27
37452;BMP280;23314;51.114;6.900;2023-02-04T03:38:27;102975.63;;;9.27
37452;BMP280;23314;51.114;6.900;2023-02-04T03:40:52;102968.75;;;9.26
37452;BMP280;23314;51.114;6.900;2023-02-04T03:43:18;102973.66;;;9.24
37452;BMP280;23314;51.114;6.900;2023-02-04T03:45:44;102979.31;;;9.23
37452;BMP280;23314;51.114;6.900;2023-02-04T03:48:09;102981.19;;;9.22
37452;BMP280;23314;51.114;6.900;2023-02-04T03:50:35;102985.28;;;9.20
37452;BMP280;23314;51.114;6.900;2023-02-04T03:53:00;102990.19;;;9.18
37452;BMP280;23314;51.114;6.900;2023-02-04T03:55:25;102989.06;;;9.19
37452;BMP280;23314;51.114;6.900;2023-02-04T03:57:52;102981.75;;;9.15
37452;BMP280;23314;51.114;6.900;2023-02-04T04:00:17;102980.97;;;9.15
37452;BMP280;23314;51.114;6.900;2023-02-04T04:02:43;102978.66;;;9.13
37452;BMP280;23314;51.114;6.900;2023-02-04T04:05:09;102986.97;;;9.12
37452;BMP280;23314;51.114;6.900;2023-02-04T04:07:34;102981.97;;;9.10
37452;BMP280;23314;51.114;6.900;2023-02-04T04:10:00;102980.44;;;9.09
37452;BMP280;23314;51.114;6.900;2023-02-04T04:12:25;102982.28;;;9.09
37452;BMP280;23314;51.114;6.900;2023-02-04T04:14:50;102979.56;;;9.05
37452;BMP280;23314;51.114;6.900;2023-02-04T04:17:15;102980.97;;;9.03
37452;BMP280;23314;51.114;6.900;2023-02-04T04:19:41;102982.41;;;9.00
37452;BMP280;23314;51.114;6.900;2023-02-04T04:22:08;102980.09;;;8.98
37452;BMP280;23314;51.114;6.900;2023-02-04T04:24:34;102983.88;;;8.97
37452;BMP280;23314;51.114;6.900;2023-02-04T04:26:59;102988.41;;;8.97
37452;BMP280;23314;51.114;6.900;2023-02-04T04:29:24;102984.53;;;8.94
37452;BMP280;23314;51.114;6.900;2023-02-04T04:31:50;102991.75;;;8.94
37452;BMP280;23314;51.114;6.900;2023-02-04T04:34:15;103000.84;;;8.93
37452;BMP280;23314;51.114;6.900;2023-02-04T04:36:40;103014.94;;;8.93
37452;BMP280;23314;51.114;6.900;2023-02-04T04:39:05;103014.94;;;8.93
37452;BMP280;23314;51.114;6.900;2023-02-04T04:41:31;103025.59;;;8.93
37452;BMP280;23314;51.114;6.900;2023-02-04T04:43:56;103021.03;;;8.94
37452;BMP280;23314;51.114;6.900;2023-02-04T04:46:21;103017.59;;;8.93
37452;BMP280;23314;51.114;6.900;2023-02-04T04:48:47;103026.69;;;8.92
37452;BMP280;23314;51.114;6.900;2023-02-04T04:51:12;103024.03;;;8.92
37452;BMP280;23314;51.114;6.900;2023-02-04T04:53:37;103032.66;;;8.89
37452;BMP280;23314;51.114;6.900;2023-02-04T04:56:02;103029.91;;;8.86
37452;BMP280;23314;51.114;6.900;2023-02-04T04:58:28;103027.56;;;8.84
37452;BMP280;23314;51.114;6.900;2023-02-04T05:00:53;103034.34;;;8.81
37452;BMP280;23314;51.114;6.900;2023-02-04T05:03:18;103031.97;;;8.80
37452;BMP280;23314;51.114;6.900;2023-02-04T05:05:44;103034.97;;;8.78
37452;BMP280;23314;51.114;6.900;2023-02-04T05:08:09;103043.34;;;8.77
37452;BMP280;23314;51.114;6.900;2023-02-04T05:10:40;103031.91;;;8.76
37452;BMP280;23314;51.114;6.900;2023-02-04T05:13:06;103036.44;;;8.76
37452;BMP280;23314;51.114;6.900;2023-02-04T05:15:32;103038.00;;;8.77
37452;BMP280;23314;51.114;6.900;2023-02-04T05:17:57;103038.00;;;8.77
37452;BMP280;23314;51.114;6.900;2023-02-04T05:20:23;103042.88;;;8.75
37452;BMP280;23314;51.114;6.900;2023-02-04T05:22:48;103048.84;;;8.72
37452;BMP280;23314;51.114;6.900;2023-02-04T05:25:14;103051.06;;;8.70
37452;BMP280;23314;51.114;6.900;2023-02-04T05:27:41;103055.59;;;8.69
37452;BMP280;23314;51.114;6.900;2023-02-04T05:30:09;103061.38;;;8.71
37452;BMP280;23314;51.114;6.900;2023-02-04T05:32:34;103059.50;;;8.72
37452;BMP280;23314;51.114;6.900;2023-02-04T05:34:59;103055.59;;;8.69
37452;BMP280;23314;51.114;6.900;2023-02-04T05:37:25;103054.81;;;8.68
37452;BMP280;23314;51.114;6.900;2023-02-04T05:39:50;103051.38;;;8.68
37452;BMP280;23314;51.114;6.900;2023-02-04T05:42:15;103057.81;;;8.67
37452;BMP280;23314;51.114;6.900;2023-02-04T05:44:41;103059.72;;;8.66
37452;BMP280;23314;51.114;6.900;2023-02-04T05:47:06;103057.81;;;8.67
37452;BMP280;23314;51.114;6.900;2023-02-04T05:49:31;103065.03;;;8.66
37452;BMP280;23314;51.114;6.900;2023-02-04T05:51:56;103071.00;;;8.63
37452;BMP280;23314;51.114;6.900;2023-02-04T05:54:22;103088.06;;;8.62
37452;BMP280;23314;51.114;6.900;2023-02-04T05:56:47;103077.44;;;8.62
37452;BMP280;23314;51.114;6.900;2023-02-04T05:59:12;103082.75;;;8.62
37452;BMP280;23314;51.114;6.900;2023-02-04T06:01:38;103091.53;;;8.63
37452;BMP280;23314;51.114;6.900;2023-02-04T06:04:03;103085.41;;;8.62
37452;BMP280;23314;51.114;6.900;2023-02-04T06:06:28;103097.16;;;8.61
37452;BMP280;23314;51.114;6.900;2023-02-04T06:08:54;103096.06;;;8.62
37452;BMP280;23314;51.114;6.900;2023-02-04T06:11:19;103091.84;;;8.61
37452;BMP280;23314;51.114;6.900;2023-02-04T06:13:44;103096.84;;;8.63
37452;BMP280;23314;51.114;6.900;2023-02-04T06:16:10;103100.28;;;8.63
37452;BMP280;23314;51.114;6.900;2023-02-04T06:18:35;103107.50;;;8.63
37452;BMP280;23314;51.114;6.900;2023-02-04T06:21:00;103101.38;;;8.62
37452;BMP280;23314;51.114;6.900;2023-02-04T06:23:29;103105.59;;;8.63
37452;BMP280;23314;51.114;6.900;2023-02-04T06:25:54;103105.59;;;8.63
37452;BMP280;23314;51.114;6.900;2023-02-04T06:28:20;103117.34;;;8.62
37452;BMP280;23314;51.114;6.900;2023-02-04T06:30:45;103123.47;;;8.63
37452;BMP280;23314;51.114;6.900;2023-02-04T06:33:10;103121.91;;;8.62
37452;BMP280;23314;51.114;6.900;2023-02-04T06:35:36;103123.00;;;8.61
37452;BMP280;23314;51.114;6.900;2023-02-04T06:38:01;103117.97;;;8.59
37452;BMP280;23314;51.114;6.900;2023-02-04T06:40:26;103113.75;;;8.58
37452;BMP280;23314;51.114;6.900;2023-02-04T06:42:51;103120.66;;;8.59
37452;BMP280;23314;51.114;6.900;2023-02-04T06:45:17;103122.22;;;8.60
37452;BMP280;23314;51.114;6.900;2023-02-04T06:47:42;103123.00;;;8.61
37452;BMP280;23314;51.114;6.900;2023-02-04T06:50:08;103117.34;;;8.62
37452;BMP280;23314;51.114;6.900;2023-02-04T06:52:33;103117.03;;;8.64
37452;BMP280;23314;51.114;6.900;2023-02-04T06:54:59;103115.16;;;8.64
37452;BMP280;23314;51.114;6.900;2023-02-04T06:57:24;103122.03;;;8.65
37452;BMP280;23314;51.114;6.900;2023-02-04T06:59:49;103123.59;;;8.66
37452;BMP280;23314;51.114;6.900;2023-02-04T07:02:15;103130.78;;;8.66
37452;BMP280;23314;51.114;6.900;2023-02-04T07:04:40;103127.34;;;8.65
37452;BMP280;23314;51.114;6.900;2023-02-04T07:07:08;103132.66;;;8.65
37452;BMP280;23314;51.114;6.900;2023-02-04T07:09:33;103123.13;;;8.64
37452;BMP280;23314;51.114;6.900;2023-02-04T07:11:59;103134.22;;;8.66
37452;BMP280;23314;51.114;6.900;2023-02-04T07:14:24;103131.13;;;8.64
37452;BMP280;23314;51.114;6.900;2023-02-04T07:16:49;103137.22;;;8.65
37452;BMP280;23314;51.114;6.900;2023-02-04T07:19:15;103134.56;;;8.65
37452;BMP280;23314;51.114;6.900;2023-02-04T07:21:40;103133.00;;;8.64
37452;BMP280;23314;51.114;6.900;2023-02-04T07:24:05;103139.09;;;8.64
37452;BMP280;23314;51.114;6.900;2023-02-04T07:26:30;103144.09;;;8.66
37452;BMP280;23314;51.114;6.900;2023-02-04T07:28:56;103139.97;;;8.68
37452;BMP280;23314;51.114;6.900;2023-02-04T07:31:21;103151.22;;;8.74
37452;BMP280;23314;51.114;6.900;2023-02-04T07:33:46;103162.00;;;8.78
37452;BMP280;23314;51.114;6.900;2023-02-04T07:36:12;103169.00;;;8.82
37452;BMP280;23314;51.114;6.900;2023-02-04T07:38:37;103172.13;;;8.85
37452;BMP280;23314;51.114;6.900;2023-02-04T07:41:02;103177.75;;;8.83
37452;BMP280;23314;51.114;6.900;2023-02-04T07:43:28;103180.41;;;8.83
37452;BMP280;23314;51.114;6.900;2023-02-04T07:45:53;103175.25;;;8.87
37452;BMP280;23314;51.114;6.900;2023-02-04T07:48:18;103175.78;;;8.92
37452;BMP280;23314;51.114;6.900;2023-02-04T07:50:44;103181.25;;;8.96
37452;BMP280;23314;51.114;6.900;2023-02-04T07:53:09;103176.03;;;8.99
37452;BMP280;23314;51.114;6.900;2023-02-04T07:55:34;103179.47;;;9.00
37452;BMP280;23314;51.114;6.900;2023-02-04T07:57:59;103194.47;;;9.05
37452;BMP280;23314;51.114;6.900;2023-02-04T08:00:25;103196.47;;;9.08
37452;BMP280;23314;51.114;6.900;2023-02-04T08:02:50;103195.81;;;9.11
37452;BMP280;23314;51.114;6.900;2023-02-04T08:05:16;103195.63;;;9.16
37452;BMP280;23314;51.114;6.900;2023-02-04T08:07:41;103196.50;;;9.20
37452;BMP280;23314;51.114;6.900;2023-02-04T08:10:08;103197.09;;;9.26
37452;BMP280;23314;51.114;6.900;2023-02-04T08:12:34;103199.41;;;9.27
37452;BMP280;23314;51.114;6.900;2023-02-04T08:14:59;103202.31;;;9.35
37452;BMP280;23314;51.114;6.900;2023-02-04T08:17:25;103210.53;;;9.42
37452;BMP280;23314;51.114;6.900;2023-02-04T08:19:51;103203.66;;;9.53
37452;BMP280;23314;51.114;6.900;2023-02-04T08:22:16;103205.91;;;9.63
37452;BMP280;23314;51.114;6.900;2023-02-04T08:24:41;103208.22;;;9.77
37452;BMP280;23314;51.114;6.900;2023-02-04T08:27:07;103212.66;;;9.86
37452;BMP280;23314;51.114;6.900;2023-02-04T08:29:32;103229.66;;;9.93
37452;BMP280;23314;51.114;6.900;2023-02-04T08:31:57;103224.44;;;9.97
37452;BMP280;23314;51.114;6.900;2023-02-04T08:34:23;103229.09;;;10.00
37452;BMP280;23314;51.114;6.900;2023-02-04T08:36:49;103230.88;;;9.96
37452;BMP280;23314;51.114;6.900;2023-02-04T08:39:15;103226.34;;;9.97
37452;BMP280;23314;51.114;6.900;2023-02-04T08:41:40;103225.53;;;9.96
37452;BMP280;23314;51.114;6.900;2023-02-04T08:44:05;103230.00;;;9.92
37452;BMP280;23314;51.114;6.900;2023-02-04T08:46:31;103235.66;;;9.90
37452;BMP280;23314;51.114;6.900;2023-02-04T08:48:56;103234.69;;;9.83
37452;BMP280;23314;51.114;6.900;2023-02-04T08:51:22;103237.31;;;9.70
37452;BMP280;23314;51.114;6.900;2023-02-04T08:53:47;103244.78;;;9.65
37452;BMP280;23314;51.114;6.900;2023-02-04T08:56:12;103247.75;;;9.63
37452;BMP280;23314;51.114;6.900;2023-02-04T08:58:42;103255.88;;;9.67
37452;BMP280;23314;51.114;6.900;2023-02-04T09:01:07;103253.97;;;9.67
37452;BMP280;23314;51.114;6.900;2023-02-04T09:03:35;103254.75;;;9.68
37452;BMP280;23314;51.114;6.900;2023-02-04T09:06:01;103258.78;;;9.74
37452;BMP280;23314;51.114;6.900;2023-02-04T09:08:26;103261.78;;;9.85
37452;BMP280;23314;51.114;6.900;2023-02-04T09:10:51;103260.78;;;9.89
37452;BMP280;23314;51.114;6.900;2023-02-04T09:13:17;103263.22;;;9.94
37452;BMP280;23314;51.114;6.900;2023-02-04T09:15:42;103267.44;;;9.95
37452;BMP280;23314;51.114;6.900;2023-02-04T09:18:07;103264.44;;;9.97
37452;BMP280;23314;51.114;6.900;2023-02-04T09:20:41;103266.53;;;10.04
37452;BMP280;23314;51.114;6.900;2023-02-04T09:23:07;103267.53;;;10.11
37452;BMP280;23314;51.114;6.900;2023-02-04T09:25:34;103270.09;;;10.20
37452;BMP280;23314;51.114;6.900;2023-02-04T09:28:00;103268.06;;;10.30
37452;BMP280;23314;51.114;6.900;2023-02-04T09:30:26;103276.06;;;10.42
37452;BMP280;23314;51.114;6.900;2023-02-04T09:32:51;103277.28;;;10.44
37452;BMP280;23314;51.114;6.900;2023-02-04T09:35:16;103279.28;;;10.48
37452;BMP280;23314;51.114;6.900;2023-02-04T09:37:41;103280.25;;;10.55
37452;BMP280;23314;51.114;6.900;2023-02-04T09:40:09;103278.69;;;10.67
37452;BMP280;23314;51.114;6.900;2023-02-04T09:42:35;103284.66;;;10.76
37452;BMP280;23314;51.114;6.900;2023-02-04T09:45:00;103282.84;;;10.80
37452;BMP280;23314;51.114;6.900;2023-02-04T09:47:27;103288.72;;;10.86
37452;BMP280;23314;51.114;6.900;2023-02-04T09:49:53;103297.94;;;10.88
37452;BMP280;23314;51.114;6.900;2023-02-04T09:52:19;103293.31;;;10.85
37452;BMP280;23314;51.114;6.900;2023-02-04T09:54:44;103290.09;;;10.96
37452;BMP280;23314;51.114;6.900;2023-02-04T09:57:18;103292.13;;;10.99
37452;BMP280;23314;51.114;6.900;2023-02-04T09:59:44;103293.06;;;11.06
37452;BMP280;23314;51.114;6.900;2023-02-04T10:02:19;103299.84;;;11.16
37452;BMP280;23314;51.114;6.900;2023-02-04T10:04:45;103303.03;;;11.22
37452;BMP280;23314;51.114;6.900;2023-02-04T10:07:11;103299.75;;;11.29
37452;BMP280;23314;51.114;6.900;2023-02-04T10:09:38;103314.88;;;11.37
37452;BMP280;23314;51.114;6.900;2023-02-04T10:12:05;103312.34;;;11.44
37452;BMP280;23314;51.114;6.900;2023-02-04T10:14:31;103314.09;;;11.52
37452;BMP280;23314;51.114;6.900;2023-02-04T10:16:58;103316.09;;;11.55
37452;BMP280;23314;51.114;6.900;2023-02-04T10:19:26;103313.69;;;11.66
37452;BMP280;23314;51.114;6.900;2023-02-04T10:21:52;103307.13;;;11.80
37452;BMP280;23314;51.114;6.900;2023-02-04T10:24:21;103315.94;;;11.96
37452;BMP280;23314;51.114;6.900;2023-02-04T10:26:50;103309.44;;;11.97
37452;BMP280;23314;51.114;6.900;2023-02-04T10:29:23;103307.94;;;12.00
37452;BMP280;23314;51.114;6.900;2023-02-04T10:31:51;103303.03;;;12.02
37452;BMP280;23314;51.114;6.900;2023-02-04T10:36:57;103313.00;;;12.21
37452;BMP280;23314;51.114;6.900;2023-02-04T10:39:23;103309.44;;;12.33
37452;BMP280;23314;51.114;6.900;2023-02-04T10:41:51;103309.38;;;12.49
37452;BMP280;23314;51.114;6.900;2023-02-04T10:44:19;103305.06;;;12.64
37452;BMP280;23314;51.114;6.900;2023-02-04T10:46:49;103305.94;;;12.68
37452;BMP280;23314;51.114;6.900;2023-02-04T10:49:23;103312.31;;;12.63
37452;BMP280;23314;51.114;6.900;2023-02-04T10:51:50;103306.94;;;12.60
37452;BMP280;23314;51.114;6.900;2023-02-04T10:54:18;103309.16;;;12.58
37452;BMP280;23314;51.114;6.900;2023-02-04T10:59:38;103318.31;;;12.37
37452;BMP280;23314;51.114;6.900;2023-02-04T11:02:26;103316.06;;;12.39
37452;BMP280;23314;51.114;6.900;2023-02-04T11:04:55;103311.13;;;12.41
37452;BMP280;23314;51.114;6.900;2023-02-04T11:07:21;103310.84;;;12.46
37452;BMP280;23314;51.114;6.900;2023-02-04T11:09:47;103308.38;;;12.57
37452;BMP280;23314;51.114;6.900;2023-02-04T11:12:36;103311.16;;;12.61
37452;BMP280;23314;51.114;6.900;2023-02-04T11:15:01;103311.50;;;12.59
37452;BMP280;23314;51.114;6.900;2023-02-04T11:17:32;103306.81;;;12.56
37452;BMP280;23314;51.114;6.900;2023-02-04T11:19:58;103305.66;;;12.53
37452;BMP280;23314;51.114;6.900;2023-02-04T11:22:44;103308.19;;;12.46
37452;BMP280;23314;51.114;6.900;2023-02-04T11:25:32;103312.66;;;12.42
37452;BMP280;23314;51.114;6.900;2023-02-04T11:27:58;103313.94;;;12.29
37452;BMP280;23314;51.114;6.900;2023-02-04T11:30:30;103309.53;;;12.20
37452;BMP280;23314;51.114;6.900;2023-02-04T11:33:04;103314.03;;;12.16
37452;BMP280;23314;51.114;6.900;2023-02-04T11:35:31;103309.66;;;12.24
37452;BMP280;23314;51.114;6.900;2023-02-04T11:37:57;103303.03;;;12.37
37452;BMP280;23314;51.114;6.900;2023-02-04T11:40:31;103310.66;;;12.55
37452;BMP280;23314;51.114;6.900;2023-02-04T11:43:14;103312.84;;;12.69
37452;BMP280;23314;51.114;6.900;2023-02-04T11:45:40;103316.06;;;12.78
37452;BMP280;23314;51.114;6.900;2023-02-04T11:48:14;103307.63;;;12.76
37452;BMP280;23314;51.114;6.900;2023-02-04T11:50:40;103314.94;;;12.79
37452;BMP280;23314;51.114;6.900;2023-02-04T11:53:08;103311.63;;;12.86
37452;BMP280;23314;51.114;6.900;2023-02-04T11:55:36;103316.78;;;12.98
37452;BMP280;23314;51.114;6.900;2023-02-04T11:58:13;103320.41;;;13.06
37452;BMP280;23314;51.114;6.900;2023-02-04T12:00:39;103319.34;;;13.11
37452;BMP280;23314;51.114;6.900;2023-02-04T12:03:21;103318.75;;;13.21
37452;BMP280;23314;51.114;6.900;2023-02-04T12:05:47;103321.22;;;13.30
37452;BMP280;23314;51.114;6.900;2023-02-04T12:11:22;103324.72;;;13.34
37452;BMP280;23314;51.114;6.900;2023-02-04T12:13:52;103315.06;;;13.29
37452;BMP280;23314;51.114;6.900;2023-02-04T12:16:18;103316.13;;;13.25
37452;BMP280;23314;51.114;6.900;2023-02-04T12:18:43;103321.00;;;13.19
37452;BMP280;23314;51.114;6.900;2023-02-04T12:21:09;103320.50;;;13.13
37452;BMP280;23314;51.114;6.900;2023-02-04T12:23:34;103317.31;;;13.04
37452;BMP280;23314;51.114;6.900;2023-02-04T12:26:00;103322.94;;;12.99
37452;BMP280;23314;51.114;6.900;2023-02-04T12:28:26;103320.06;;;13.08
37452;BMP280;23314;51.114;6.900;2023-02-04T12:30:53;103326.31;;;13.15
37452;BMP280;23314;51.114;6.900;2023-02-04T12:33:18;103322.88;;;13.15
37452;BMP280;23314;51.114;6.900;2023-02-04T12:35:43;103319.81;;;13.16
37452;BMP280;23314;51.114;6.900;2023-02-04T12:38:09;103327.28;;;13.27
37452;BMP280;23314;51.114;6.900;2023-02-04T12:40:35;103319.03;;;13.39
37452;BMP280;23314;51.114;6.900;2023-02-04T12:43:00;103318.03;;;13.47
37452;BMP280;23314;51.114;6.900;2023-02-04T12:45:26;103317.78;;;13.56
37452;BMP280;23314;51.114;6.900;2023-02-04T12:47:51;103320.16;;;13.61
37452;BMP280;23314;51.114;6.900;2023-02-04T12:50:17;103320.13;;;13.58
37452;BMP280;23314;51.114;6.900;2023-02-04T12:52:51;103323.56;;;13.58
37452;BMP280;23314;51.114;6.900;2023-02-04T12:55:17;103323.50;;;13.54
37452;BMP280;23314;51.114;6.900;2023-02-04T12:57:43;103315.03;;;13.52
37452;BMP280;23314;51.114;6.900;2023-02-04T13:00:11;103313.56;;;13.55
37452;BMP280;23314;51.114;6.900;2023-02-04T13:02:36;103315.56;;;13.62
37452;BMP280;23314;51.114;6.900;2023-02-04T13:05:01;103317.06;;;13.59
37452;BMP280;23314;51.114;6.900;2023-02-04T13:07:27;103313.56;;;13.55
37452;BMP280;23314;51.114;6.900;2023-02-04T13:09:52;103315.34;;;13.47
37452;BMP280;23314;51.114;6.900;2023-02-04T13:12:18;103311.72;;;13.36
37452;BMP280;23314;51.114;6.900;2023-02-04T13:14:43;103307.38;;;13.28
37452;BMP280;23314;51.114;6.900;2023-02-04T13:17:09;103314.94;;;13.22
37452;BMP280;23314;51.114;6.900;2023-02-04T13:19:34;103312.91;;;13.15
37452;BMP280;23314;51.114;6.900;2023-02-04T13:22:00;103309.03;;;13.13
37452;BMP280;23314;51.114;6.900;2023-02-04T13:24:26;103313.50;;;13.05
37452;BMP280;23314;51.114;6.900;2023-02-04T13:26:52;103310.28;;;12.96
37452;BMP280;23314;51.114;6.900;2023-02-04T13:29:17;103320.41;;;12.86
37452;BMP280;23314;51.114;6.900;2023-02-04T13:31:42;103312.19;;;12.76
37452;BMP280;23314;51.114;6.900;2023-02-04T13:34:08;103306.75;;;12.72
37452;BMP280;23314;51.114;6.900;2023-02-04T13:36:33;103306.00;;;12.71
37452;BMP280;23314;51.114;6.900;2023-02-04T13:38:58;103306.47;;;12.77
37452;BMP280;23314;51.114;6.900;2023-02-04T13:41:27;103309.50;;;12.76
37452;BMP280;23314;51.114;6.900;2023-02-04T13:43:53;103308.78;;;12.79
37452;BMP280;23314;51.114;6.900;2023-02-04T13:46:19;103303.41;;;12.75
37452;BMP280;23314;51.114;6.900;2023-02-04T13:48:44;103302.41;;;12.83
37452;BMP280;23314;51.114;6.900;2023-02-04T13:51:10;103295.75;;;12.97
37452;BMP280;23314;51.114;6.900;2023-02-04T13:53:35;103299.41;;;13.08
37452;BMP280;23314;51.114;6.900;2023-02-04T13:56:00;103286.22;;;13.23
37452;BMP280;23314;51.114;6.900;2023-02-04T13:58:26;103287.69;;;13.43
37452;BMP280;23314;51.114;6.900;2023-02-04T14:00:51;103288.66;;;13.54
37452;BMP280;23314;51.114;6.900;2023-02-04T14:03:22;103285.75;;;13.67
37452;BMP280;23314;51.114;6.900;2023-02-04T14:05:48;103286.00;;;13.85
37452;BMP280;23314;51.114;6.900;2023-02-04T14:08:14;103283.56;;;14.03